createdAt,value
2022-11-07T00:03:26.128Z,101014.00
2022-11-07T00:09:28.678Z,101022.00
2022-11-07T00:15:31.148Z,101017.00
2022-11-07T00:21:33.400Z,101025.00
2022-11-07T00:27:35.680Z,101022.00
2022-11-07T00:33:38.475Z,101017.00
2022-11-07T00:39:40.879Z,101017.00
2022-11-07T00:45:45.244Z,101016.00
2022-11-07T00:51:47.370Z,101017.00
2022-11-07T00:57:49.520Z,101014.00
2022-11-07T01:04:10.656Z,101012.00
2022-11-07T01:10:12.692Z,101011.00
2022-11-07T01:16:15.056Z,101009.00
2022-11-07T01:22:17.183Z,101001.00
2022-11-07T01:28:19.283Z,101003.00
2022-11-07T01:34:21.523Z,101001.00
2022-11-07T01:40:23.806Z,101007.00
2022-11-07T01:46:35.304Z,101007.00
2022-11-07T01:52:42.153Z,101013.00
2022-11-07T01:58:45.821Z,101013.00
2022-11-07T02:04:48.307Z,101015.00
2022-11-07T02:10:51.444Z,101017.00
2022-11-07T02:16:54.029Z,101011.00
2022-11-07T02:23:09.464Z,101017.00
2022-11-07T02:29:13.273Z,101010.00
2022-11-07T02:35:34.472Z,101011.00
2022-11-07T02:41:36.670Z,101009.00
2022-11-07T02:47:38.859Z,101001.00
2022-11-07T02:53:41.167Z,101008.00
2022-11-07T02:59:43.333Z,101008.00
2022-11-07T03:05:45.492Z,101017.00
2022-11-07T03:11:48.083Z,101035.00
2022-11-07T03:17:50.265Z,101038.00
2022-11-07T03:23:52.654Z,101033.00
2022-11-07T03:29:55.027Z,101020.00
2022-11-07T03:35:57.372Z,101026.00
2022-11-07T03:41:59.635Z,101026.00
2022-11-07T03:48:01.896Z,101023.00
2022-11-07T03:54:04.310Z,101018.00
2022-11-07T04:00:07.602Z,101009.00
2022-11-07T04:06:14.022Z,101016.00
2022-11-07T04:12:35.053Z,101015.00
2022-11-07T04:18:37.288Z,101015.00
2022-11-07T04:24:45.402Z,101015.00
2022-11-07T04:30:48.160Z,101013.00
2022-11-07T04:36:50.490Z,101012.00
2022-11-07T04:42:52.970Z,101019.00
2022-11-07T04:48:55.154Z,101020.00
2022-11-07T04:54:57.378Z,101023.00
2022-11-07T05:00:59.530Z,101029.00
2022-11-07T05:07:01.629Z,101020.00
2022-11-07T05:13:03.752Z,101033.00
2022-11-07T05:19:06.030Z,101037.00
2022-11-07T05:25:08.833Z,101039.00
2022-11-07T05:31:15.366Z,101051.00
2022-11-07T05:37:17.826Z,101052.00
2022-11-07T05:43:20.095Z,101053.00
2022-11-07T05:49:22.619Z,101059.00
2022-11-07T05:55:25.863Z,101071.00
2022-11-07T06:01:28.037Z,101083.00
2022-11-07T06:07:33.167Z,101081.00
2022-11-07T06:13:35.440Z,101096.00
2022-11-07T06:19:37.719Z,101112.00
2022-11-07T06:25:40.077Z,101113.00
2022-11-07T06:31:42.255Z,101126.00
2022-11-07T06:37:44.652Z,101123.00
2022-11-07T06:43:46.846Z,101133.00
2022-11-07T06:49:49.055Z,101136.00
2022-11-07T06:55:51.390Z,101142.00
2022-11-07T07:01:53.776Z,101139.00
2022-11-07T07:07:56.347Z,101137.00
2022-11-07T07:14:02.100Z,101143.00
2022-11-07T07:20:05.729Z,101147.00
2022-11-07T07:26:12.920Z,101144.00
2022-11-07T07:32:15.108Z,101145.00
2022-11-07T07:38:17.302Z,101156.00
2022-11-07T07:44:19.595Z,101152.00
2022-11-07T07:50:21.807Z,101163.00
2022-11-07T07:56:24.043Z,101169.00
2022-11-07T08:02:26.115Z,101163.00
2022-11-07T08:08:31.419Z,101153.00
2022-11-07T08:14:36.314Z,101166.00
2022-11-07T08:20:38.478Z,101156.00
2022-11-07T08:26:40.760Z,101168.00
2022-11-07T08:32:43.000Z,101164.00
2022-11-07T08:38:45.118Z,101166.00
2022-11-07T08:44:47.430Z,101175.00
2022-11-07T08:50:56.518Z,101160.00
2022-11-07T08:56:58.753Z,101149.00
2022-11-07T09:09:28.945Z,101151.00
2022-11-07T09:15:31.160Z,101164.00
2022-11-07T09:21:33.311Z,101164.00
2022-11-07T09:27:36.187Z,101154.00
2022-11-07T09:33:38.403Z,101140.00
2022-11-07T09:39:40.536Z,101144.00
2022-11-07T09:46:00.972Z,101143.00
2022-11-07T09:52:41.231Z,101130.00
2022-11-07T09:58:44.769Z,101129.00
2022-11-07T10:04:49.954Z,101130.00
2022-11-07T10:11:01.350Z,101122.00
2022-11-07T10:17:34.884Z,101124.00
2022-11-07T10:23:54.410Z,101116.00
2022-11-07T10:29:56.532Z,101091.00
2022-11-07T10:36:22.128Z,101080.00
2022-11-07T10:42:29.002Z,101077.00
2022-11-07T10:48:33.416Z,101078.00
2022-11-07T10:54:35.519Z,101062.00
2022-11-07T11:00:41.758Z,101056.00
2022-11-07T11:06:43.972Z,101029.00
2022-11-07T11:12:47.776Z,101030.00
2022-11-07T11:19:00.543Z,101011.00
2022-11-07T11:25:17.519Z,101008.00
2022-11-07T11:31:26.070Z,100912.00
2022-11-07T11:37:28.988Z,100905.00
2022-11-07T11:43:44.613Z,100911.00
2022-11-07T11:49:56.302Z,100935.00
2022-11-07T11:56:07.436Z,101025.00
2022-11-07T12:02:47.763Z,101011.00
2022-11-07T12:08:56.812Z,100999.00
2022-11-07T12:15:28.938Z,101004.00
2022-11-07T12:21:34.933Z,101004.00
2022-11-07T12:28:03.814Z,100986.00
2022-11-07T12:34:14.687Z,100996.00
2022-11-07T12:40:35.777Z,100993.00
2022-11-07T12:47:08.614Z,100988.00
2022-11-07T12:53:26.767Z,100985.00
2022-11-07T12:59:31.563Z,100983.00
2022-11-07T13:05:50.441Z,100975.00
2022-11-07T13:12:09.286Z,100976.00
2022-11-07T13:18:25.826Z,100972.00
2022-11-07T13:24:29.896Z,100978.00
2022-11-07T13:30:37.093Z,100977.00
2022-11-07T13:36:39.697Z,100969.00
2022-11-07T13:42:44.329Z,100968.00
2022-11-07T13:48:55.669Z,100975.00
2022-11-07T13:55:06.122Z,100971.00
2022-11-07T14:01:13.350Z,100964.00
2022-11-07T14:07:15.665Z,100958.00
2022-11-07T14:13:41.499Z,100964.00
2022-11-07T14:19:44.808Z,100959.00
2022-11-07T14:25:55.985Z,100959.00
2022-11-07T14:32:00.455Z,100958.00
2022-11-07T14:38:12.003Z,100959.00
2022-11-07T14:44:17.958Z,100970.00
2022-11-07T14:50:25.224Z,100970.00
2022-11-07T14:56:34.215Z,100970.00
2022-11-07T15:02:36.752Z,100967.00
2022-11-07T15:08:39.030Z,100971.00
2022-11-07T15:14:41.374Z,100966.00
2022-11-07T15:20:43.910Z,100970.00
2022-11-07T15:26:46.048Z,100968.00
2022-11-07T15:32:48.888Z,100968.00
2022-11-07T15:38:52.021Z,100961.00
2022-11-07T15:44:54.153Z,100978.00
2022-11-07T15:50:56.804Z,100976.00
2022-11-07T15:57:33.100Z,100981.00
2022-11-07T16:04:11.526Z,100982.00
2022-11-07T16:10:26.194Z,100989.00
2022-11-07T16:16:32.764Z,100990.00
2022-11-07T16:22:35.024Z,100994.00
2022-11-07T16:28:37.565Z,100994.00
2022-11-07T16:34:40.066Z,100998.00
2022-11-07T16:40:42.680Z,101003.00
2022-11-07T16:46:45.007Z,101004.00
2022-11-07T16:52:47.597Z,101011.00
2022-11-07T16:58:50.089Z,101007.00
2022-11-07T17:04:54.765Z,101005.00
2022-11-07T17:10:57.254Z,101007.00
2022-11-07T17:17:01.997Z,101003.00
2022-11-07T17:23:04.059Z,101004.00
2022-11-07T17:29:08.929Z,101009.00
2022-11-07T17:35:31.289Z,100992.00
2022-11-07T17:41:33.699Z,101000.00
2022-11-07T17:47:36.136Z,100993.00
2022-11-07T17:53:38.946Z,101003.00
2022-11-07T17:59:45.712Z,100995.00
2022-11-07T18:05:49.522Z,100992.00
2022-11-07T18:11:51.949Z,100988.00
2022-11-07T18:17:54.204Z,100996.00
2022-11-07T18:23:57.745Z,100984.00
2022-11-07T18:30:00.011Z,100989.00
2022-11-07T18:36:07.665Z,100985.00
2022-11-07T18:42:09.913Z,100989.00
2022-11-07T18:48:12.267Z,100989.00
2022-11-07T18:54:15.065Z,101001.00
2022-11-07T19:00:17.715Z,100989.00
2022-11-07T19:06:21.626Z,100994.00
2022-11-07T19:12:24.138Z,100997.00
2022-11-07T19:18:26.280Z,100998.00
2022-11-07T19:24:28.524Z,101005.00
2022-11-07T19:30:33.610Z,101006.00
2022-11-07T19:36:37.340Z,101003.00
2022-11-07T19:42:39.601Z,101008.00
2022-11-07T19:48:42.935Z,101013.00
2022-11-07T19:54:45.754Z,101016.00
2022-11-07T20:00:47.595Z,101014.00
2022-11-07T20:06:50.657Z,101023.00
2022-11-07T20:12:53.118Z,101028.00
2022-11-07T20:18:55.291Z,101024.00
2022-11-07T20:24:57.394Z,101024.00
2022-11-07T20:30:59.461Z,101033.00
2022-11-07T20:37:01.885Z,101027.00
2022-11-07T20:43:05.597Z,101027.00
2022-11-07T20:49:11.348Z,101031.00
2022-11-07T20:55:13.605Z,101017.00
2022-11-07T21:01:21.619Z,101019.00
2022-11-07T21:07:23.861Z,101020.00
2022-11-07T21:13:26.168Z,101024.00
2022-11-07T21:19:29.561Z,101025.00
2022-11-07T21:25:31.863Z,101023.00
2022-11-07T21:31:35.423Z,101034.00
2022-11-07T21:37:37.554Z,101032.00
2022-11-07T21:43:39.729Z,101041.00
2022-11-07T21:49:41.832Z,101028.00
2022-11-07T21:55:43.965Z,101037.00
2022-11-07T22:01:48.911Z,101028.00
2022-11-07T22:07:51.443Z,101024.00
2022-11-07T22:13:53.852Z,101034.00
2022-11-07T22:19:55.970Z,101027.00
2022-11-07T22:26:10.659Z,101021.00
2022-11-07T22:32:12.812Z,101022.00
2022-11-07T22:38:14.886Z,101014.00
2022-11-07T22:44:17.081Z,101015.00
2022-11-07T22:50:19.503Z,101010.00
2022-11-07T22:56:21.723Z,101009.00
2022-11-07T23:02:24.031Z,101006.00
2022-11-07T23:08:26.393Z,100999.00
2022-11-07T23:14:28.565Z,101000.00
2022-11-07T23:20:49.451Z,101006.00
2022-11-07T23:26:52.020Z,100998.00
2022-11-07T23:32:54.132Z,100997.00
2022-11-07T23:38:56.485Z,100995.00
2022-11-07T23:45:17.290Z,100995.00
2022-11-07T23:51:19.413Z,100995.00
2022-11-07T23:57:21.759Z,101000.00
